createdAt,value
2022-08-03T00:03:22.884Z,8.65
2022-08-03T00:13:25.980Z,7.90
2022-08-03T00:23:33.121Z,8.82
2022-08-03T00:33:59.424Z,9.90
2022-08-03T00:44:05.906Z,9.27
2022-08-03T00:54:08.224Z,9.25
2022-08-03T01:04:10.768Z,9.68
2022-08-03T01:14:23.020Z,10.30
2022-08-03T01:25:03.726Z,10.45
2022-08-03T01:35:38.647Z,9.38
2022-08-03T01:45:44.361Z,10.10
2022-08-03T01:55:54.580Z,10.00
2022-08-03T02:07:00.623Z,11.18
2022-08-03T02:16:26.413Z,10.18
2022-08-03T02:26:31.192Z,10.38
2022-08-03T02:36:40.120Z,11.00
2022-08-03T02:46:47.082Z,11.73
2022-08-03T02:56:52.690Z,10.82
2022-08-03T03:06:57.299Z,11.73
2022-08-03T03:17:02.395Z,10.77
2022-08-03T03:27:05.621Z,11.13
2022-08-03T03:37:08.146Z,10.70
2022-08-03T03:47:10.742Z,11.48
2022-08-03T03:57:14.926Z,12.50
2022-08-03T04:07:37.170Z,11.07
2022-08-03T04:17:42.087Z,11.63
2022-08-03T04:28:29.556Z,11.45
2022-08-03T04:38:15.497Z,12.38
2022-08-03T04:48:18.113Z,13.00
2022-08-03T04:58:20.606Z,13.60
2022-08-03T05:08:28.198Z,12.98
2022-08-03T05:18:30.777Z,13.68
2022-08-03T05:38:38.598Z,12.68
2022-08-03T05:48:42.045Z,11.85
2022-08-03T05:58:48.320Z,12.43
2022-08-03T06:08:51.150Z,12.35
2022-08-03T06:18:53.699Z,11.57
2022-08-03T06:28:56.325Z,11.15
2022-08-03T06:38:59.679Z,10.15
2022-08-03T06:49:02.221Z,9.32
2022-08-03T06:59:04.890Z,9.10
2022-08-03T07:09:07.952Z,8.55
2022-08-03T07:19:12.527Z,7.85
2022-08-03T07:29:15.298Z,7.10
2022-08-03T07:39:18.305Z,6.43
2022-08-03T07:49:20.856Z,5.97
2022-08-03T07:59:23.936Z,5.93
2022-08-03T08:09:26.969Z,6.13
2022-08-03T08:19:31.928Z,5.68
2022-08-03T08:29:46.891Z,5.50
2022-08-03T08:39:50.864Z,5.80
2022-08-03T08:50:09.165Z,5.30
2022-08-03T09:00:16.666Z,5.25
2022-08-03T09:10:21.949Z,5.18
2022-08-03T09:20:28.231Z,3.90
2022-08-03T09:30:35.347Z,3.95
2022-08-03T09:40:38.183Z,4.30
2022-08-03T09:50:58.623Z,2.83
2022-08-03T10:01:24.210Z,3.22
2022-08-03T10:11:36.218Z,3.50
2022-08-03T10:22:01.656Z,3.47
2022-08-03T10:32:10.073Z,2.97
2022-08-03T10:42:14.874Z,3.00
2022-08-03T10:52:31.986Z,2.65
2022-08-03T11:03:09.556Z,2.47
2022-08-03T11:13:16.885Z,2.72
2022-08-03T11:24:03.469Z,2.67
2022-08-03T11:34:09.445Z,2.65
2022-08-03T11:44:41.284Z,2.50
2022-08-03T11:54:44.370Z,2.83
2022-08-03T12:05:03.133Z,2.67
2022-08-03T12:15:06.758Z,2.70
2022-08-03T12:25:10.266Z,2.58
2022-08-03T12:35:24.788Z,2.30
2022-08-03T12:45:32.110Z,2.60
2022-08-03T12:55:57.192Z,2.90
2022-08-03T13:05:59.146Z,2.53
2022-08-03T13:16:01.865Z,2.63
2022-08-03T13:26:04.855Z,2.70
2022-08-03T13:36:07.963Z,2.30
2022-08-03T13:46:10.947Z,2.60
2022-08-03T13:56:13.850Z,2.65
2022-08-03T14:06:16.809Z,3.22
2022-08-03T14:16:19.807Z,2.83
2022-08-03T14:26:26.058Z,2.75
2022-08-03T14:36:28.744Z,2.70
2022-08-03T14:46:32.376Z,2.95
2022-08-03T14:56:34.839Z,2.80
2022-08-03T15:06:37.469Z,3.20
2022-08-03T15:16:43.052Z,2.90
2022-08-03T15:26:45.470Z,2.65
2022-08-03T15:36:47.745Z,3.10
2022-08-03T15:46:53.179Z,2.65
2022-08-03T15:56:56.332Z,2.75
2022-08-03T16:07:03.115Z,3.10
2022-08-03T16:17:06.493Z,2.67
2022-08-03T16:27:17.515Z,2.38
2022-08-03T16:37:39.666Z,2.90
2022-08-03T16:47:42.759Z,2.78
2022-08-03T16:57:58.384Z,2.65
2022-08-03T17:08:10.606Z,3.28
2022-08-03T17:18:18.446Z,3.17
2022-08-03T17:28:49.199Z,3.55
2022-08-03T17:38:48.101Z,3.58
2022-08-03T17:48:57.623Z,3.40
2022-08-03T17:59:51.576Z,3.63
2022-08-03T18:10:03.698Z,3.67
2022-08-03T18:20:32.696Z,3.58
2022-08-03T18:30:38.881Z,3.72
2022-08-03T18:40:56.724Z,3.17
2022-08-03T18:51:06.927Z,3.17
2022-08-03T19:01:59.904Z,2.78
2022-08-03T19:12:28.162Z,3.28
2022-08-03T19:22:36.443Z,3.30
2022-08-03T19:32:42.044Z,2.97
2022-08-03T19:43:10.308Z,3.10
2022-08-03T19:53:21.057Z,2.97
2022-08-03T20:03:43.258Z,3.80
2022-08-03T20:13:49.938Z,3.17
2022-08-03T20:24:01.890Z,3.35
2022-08-03T20:34:20.313Z,3.25
2022-08-03T20:44:25.675Z,2.95
2022-08-03T20:54:31.006Z,3.17
2022-08-03T21:04:36.586Z,3.53
2022-08-03T21:14:50.372Z,3.35
2022-08-03T21:24:56.558Z,3.10
2022-08-03T21:34:59.342Z,3.20
2022-08-03T21:45:09.272Z,2.92
2022-08-03T21:55:18.645Z,3.03
2022-08-03T22:05:29.010Z,3.33
2022-08-03T22:15:47.975Z,2.92
2022-08-03T22:25:52.834Z,2.97
2022-08-03T22:35:59.018Z,3.22
2022-08-03T22:46:10.371Z,3.75
2022-08-03T22:56:14.796Z,3.15
2022-08-03T23:06:19.547Z,3.38
2022-08-03T23:16:29.720Z,2.88
2022-08-03T23:26:34.518Z,2.85
2022-08-03T23:36:36.912Z,3.28
2022-08-03T23:46:39.515Z,3.15
2022-08-03T23:57:00.486Z,3.13
